Time;durP1;ratioP1;P1;durP2;ratioP2;P2;SDS_P1;SDS_P2;PMS_P1;PMS_P2;Temp;Humidity;BMP_temperature;BMP_pressure;BME280_temperature;BME280_humidity;BME280_pressure;Samples;Min_cycle;Max_cycle;Signal;HPM_P1;HPM_P2
2022/05/03 00:00:17;;;;;;;3.10;2.90;;;10.50;99.30;;;;;;6108485;23;20147;-75
2022/05/03 00:03:17;;;;;;;4.10;3.13;;;10.50;99.60;;;;;;6107768;23;20425;-74
2022/05/03 00:06:05;;;;;;;4.45;3.20;;;10.60;99.70;;;;;;6110488;23;20006;-75
2022/05/03 00:08:42;;;;;;;4.22;2.90;;;10.60;99.60;;;;;;6111324;23;19994;-75
2022/05/03 00:11:10;;;;;;;3.65;3.05;;;10.50;99.90;;;;;;6109668;23;20013;-76
2022/05/03 00:13:43;;;;;;;3.65;3.13;;;10.50;99.70;;;;;;6111069;23;20125;-77
2022/05/03 00:16:12;;;;;;;3.30;3.00;;;10.40;99.60;;;;;;6109981;23;20407;-75
2022/05/03 00:18:38;;;;;;;3.45;3.15;;;10.20;99.90;;;;;;6108920;23;20518;-74
2022/05/03 00:21:04;;;;;;;3.38;2.42;;;10.20;99.90;;;;;;6109877;23;20389;-75
2022/05/03 00:23:30;;;;;;;4.13;2.70;;;10.20;99.90;;;;;;6110403;23;20006;-75
2022/05/03 00:25:57;;;;;;;3.17;2.80;;;10.20;99.90;;;;;;6109101;23;20010;-75
2022/05/03 00:28:23;;;;;;;4.78;2.55;;;10.30;99.90;;;;;;6110696;23;20022;-75
2022/05/03 00:30:49;;;;;;;3.28;2.97;;;10.30;99.90;;;;;;6109396;23;20445;-68
2022/05/03 00:33:16;;;;;;;4.93;2.97;;;10.30;99.70;;;;;;6083738;23;20106;-68
2022/05/03 00:35:42;;;;;;;3.13;2.80;;;10.30;99.90;;;;;;6109487;23;20064;-68
2022/05/03 00:38:08;;;;;;;3.20;2.90;;;10.30;99.90;;;;;;6109988;23;20006;-68
2022/05/03 00:40:35;;;;;;;3.20;2.90;;;10.30;99.90;;;;;;6109490;23;20152;-68
2022/05/03 00:43:21;;;;;;;3.00;2.75;;;10.30;99.90;;;;;;6109588;23;20066;-69
2022/05/03 00:45:53;;;;;;;4.28;3.10;;;10.30;99.90;;;;;;6111014;23;20382;-69
2022/05/03 00:48:38;;;;;;;3.72;3.30;;;10.40;99.90;;;;;;6110810;23;20013;-69
2022/05/03 00:51:16;;;;;;;5.00;3.17;;;10.40;99.90;;;;;;6109916;23;20006;-69
2022/05/03 00:54:07;;;;;;;4.72;3.38;;;10.50;99.90;;;;;;6111296;23;20502;-69
2022/05/03 00:56:42;;;;;;;3.30;3.00;;;10.50;99.90;;;;;;6084791;23;20014;-70
2022/05/03 00:59:35;;;;;;;7.22;2.95;;;10.50;99.80;;;;;;6112727;23;20040;-71
2022/05/03 01:02:06;;;;;;;3.65;3.20;;;10.50;99.90;;;;;;6110706;23;20002;-71
2022/05/03 01:05:03;;;;;;;5.38;3.47;;;10.50;99.90;;;;;;6111135;23;20048;-71
2022/05/03 01:07:32;;;;;;;3.40;3.10;;;10.50;99.90;;;;;;6112680;23;20048;-71
2022/05/03 01:10:08;;;;;;;4.22;3.67;;;10.50;99.90;;;;;;6110368;23;20013;-70
2022/05/03 01:12:52;;;;;;;5.43;3.72;;;10.50;99.80;;;;;;6111682;23;20094;-70
2022/05/03 01:15:25;;;;;;;3.95;3.58;;;10.50;99.80;;;;;;6112262;23;20002;-71
2022/05/03 01:17:56;;;;;;;4.03;3.45;;;10.50;99.80;;;;;;6111027;23;20021;-70
2022/05/03 01:20:50;;;;;;;4.75;3.78;;;10.50;99.80;;;;;;6110140;23;20013;-71
2022/05/03 01:23:27;;;;;;;3.40;2.90;;;10.50;99.90;;;;;;6112499;23;20377;-71
2022/05/03 01:26:10;;;;;;;2.63;2.30;;;10.40;99.50;;;;;;6111723;23;20057;-70
2022/05/03 01:29:01;;;;;;;2.67;2.47;;;10.10;99.50;;;;;;6111859;23;20006;-71
2022/05/03 01:31:28;;;;;;;3.25;2.95;;;9.90;99.90;;;;;;6110273;23;20006;-71
2022/05/03 01:34:01;;;;;;;4.53;2.80;;;9.80;99.90;;;;;;6111620;23;20018;-70
2022/05/03 01:36:50;;;;;;;2.60;2.40;;;9.80;99.90;;;;;;6112662;23;20014;-70
2022/05/03 01:39:27;;;;;;;3.38;2.78;;;9.90;99.90;;;;;;6112565;23;20090;-70
2022/05/03 01:42:10;;;;;;;3.38;2.97;;;9.90;99.90;;;;;;6085768;23;20591;-71
2022/05/03 01:44:44;;;;;;;2.83;2.60;;;9.90;99.90;;;;;;6111711;23;20002;-71
2022/05/03 01:47:31;;;;;;;5.22;2.58;;;9.90;99.90;;;;;;6110098;23;20010;-71
2022/05/03 01:50:20;;;;;;;3.00;2.72;;;10.00;99.90;;;;;;6113101;23;20006;-71
2022/05/03 01:53:33;;;;;;;4.13;2.90;;;9.90;99.90;;;;;;6111448;23;20002;-70
2022/05/03 01:56:27;;;;;;;3.13;2.80;;;9.80;99.90;;;;;;6112807;23;20064;-71
2022/05/03 01:59:37;;;;;;;3.13;2.83;;;9.80;99.90;;;;;;6112699;23;20001;-71
2022/05/03 02:02:12;;;;;;;4.10;2.88;;;9.80;99.90;;;;;;6109569;23;20065;-71
2022/05/03 02:04:48;;;;;;;3.40;3.10;;;9.80;99.90;;;;;;6113280;23;20013;-72
2022/05/03 02:07:34;;;;;;;5.32;2.55;;;9.80;99.90;;;;;;6111928;23;20006;-71
2022/05/03 02:10:08;;;;;;;5.75;2.63;;;9.80;99.90;;;;;;6112618;23;20008;-72
2022/05/03 02:12:34;;;;;;;4.07;2.55;;;9.80;99.90;;;;;;6110917;23;20006;-72
2022/05/03 02:15:06;;;;;;;2.95;2.70;;;9.80;99.90;;;;;;6113122;23;20014;-72
2022/05/03 02:17:53;;;;;;;2.75;2.55;;;9.80;99.90;;;;;;6083506;23;20378;-72
2022/05/03 02:20:28;;;;;;;6.30;2.65;;;9.70;99.90;;;;;;6113129;23;20013;-72
2022/05/03 02:23:24;;;;;;;4.75;3.03;;;9.70;99.90;;;;;;6112027;23;20005;-72
2022/05/03 02:26:11;;;;;;;3.40;3.00;;;9.70;99.90;;;;;;6121632;23;20002;-77
2022/05/03 02:28:53;;;;;;;3.83;3.45;;;9.70;99.90;;;;;;6125519;23;20006;-78
2022/05/03 02:31:30;;;;;;;3.35;2.88;;;9.80;99.90;;;;;;6121089;23;20017;-77
2022/05/03 02:34:03;;;;;;;4.78;2.78;;;9.80;99.90;;;;;;6122559;23;20010;-77
2022/05/03 02:36:34;;;;;;;3.53;3.17;;;9.90;99.90;;;;;;6122312;23;20044;-77
2022/05/03 02:39:00;;;;;;;3.63;3.30;;;10.10;99.90;;;;;;6123984;23;20096;-78
2022/05/03 02:41:28;;;;;;;5.20;3.10;;;10.10;99.90;;;;;;6123383;23;20039;-76
2022/05/03 02:43:56;;;;;;;3.83;3.25;;;10.30;99.90;;;;;;6123296;23;20013;-77
2022/05/03 02:46:30;;;;;;;4.03;2.95;;;10.40;99.90;;;;;;6122019;23;20020;-77
2022/05/03 02:49:03;;;;;;;5.60;3.50;;;10.40;99.90;;;;;;6123239;23;20080;-77
2022/05/03 02:51:34;;;;;;;;;;;10.50;99.90;;;;;;6098308;23;20013;-78
2022/05/03 02:54:10;;;;;;;17.40;14.65;;;10.40;99.90;;;;;;6122669;23;19908;-78
2022/05/03 02:56:52;;;;;;;8.73;6.70;;;10.40;99.90;;;;;;6124063;23;20157;-77
2022/05/03 03:01:47;;;;;;;4.57;3.33;;;10.40;99.90;;;;;;6125036;23;20013;-77
2022/05/03 03:02:22;;;;;;;;;;;10.40;99.90;;;;;;6121625;23;20462;-72
2022/05/03 03:05:17;;;;;;;3.50;3.20;;;10.30;99.90;;;;;;6124326;23;19908;-72
2022/05/03 03:08:13;;;;;;;3.72;3.08;;;10.20;99.90;;;;;;6120991;23;20069;-72
2022/05/03 03:10:51;;;;;;;4.05;3.75;;;10.20;99.90;;;;;;6124583;23;20058;-72
2022/05/03 03:13:58;;;;;;;4.85;3.88;;;10.20;99.90;;;;;;6123991;23;20006;-71
2022/05/03 03:16:33;;;;;;;6.20;3.45;;;10.20;99.90;;;;;;6113656;23;20124;-71
2022/05/03 03:19:04;;;;;;;3.30;3.00;;;10.20;99.90;;;;;;6086596;23;20489;-71
2022/05/03 03:21:34;;;;;;;3.60;3.20;;;10.30;99.90;;;;;;6112772;23;20006;-78
2022/05/03 03:24:01;;;;;;;4.13;3.38;;;10.30;99.90;;;;;;6111588;23;20404;-77
2022/05/03 03:26:30;;;;;;;4.55;3.80;;;10.40;99.90;;;;;;6111081;23;20089;-78
2022/05/03 03:29:00;;;;;;;4.00;3.58;;;10.40;99.90;;;;;;6112585;23;20006;-77
2022/05/03 03:31:31;;;;;;;4.43;3.60;;;10.40;99.90;;;;;;6112959;23;20009;-77
2022/05/03 03:33:58;;;;;;;5.65;2.80;;;10.40;99.90;;;;;;6112669;23;20384;-78
2022/05/03 03:36:27;;;;;;;3.45;2.90;;;10.30;99.90;;;;;;6113022;23;20029;-76
2022/05/03 03:38:54;;;;;;;3.47;3.20;;;10.30;99.90;;;;;;6111468;23;20401;-77
2022/05/03 03:41:20;;;;;;;3.25;2.88;;;10.20;99.90;;;;;;6085094;23;20081;-72
2022/05/03 03:43:46;;;;;;;3.35;3.03;;;10.20;99.90;;;;;;6085708;23;20144;-72
2022/05/03 03:46:11;;;;;;;4.55;3.22;;;10.20;99.90;;;;;;6111769;23;20003;-72
2022/05/03 03:48:38;;;;;;;6.15;2.95;;;10.10;99.90;;;;;;6111147;23;20006;-71
2022/05/03 03:51:05;;;;;;;3.30;3.00;;;10.10;99.90;;;;;;6112241;23;20016;-71
2022/05/03 03:53:32;;;;;;;2.70;2.50;;;10.10;99.90;;;;;;6112380;23;20469;-72
2022/05/03 03:55:59;;;;;;;2.70;2.50;;;10.20;99.90;;;;;;6111427;23;20041;-73
2022/05/03 03:58:25;;;;;;;4.45;2.80;;;10.10;99.90;;;;;;6110300;23;20127;-77
2022/05/03 04:00:51;;;;;;;5.07;3.33;;;10.20;99.90;;;;;;6109532;23;20014;-71
2022/05/03 04:03:18;;;;;;;7.22;3.08;;;10.20;99.90;;;;;;6110713;23;20518;-71
2022/05/03 04:05:45;;;;;;;3.25;2.95;;;10.30;99.90;;;;;;6112885;23;20010;-72
2022/05/03 04:08:10;;;;;;;3.25;2.97;;;10.30;99.90;;;;;;6112284;23;20083;-72
2022/05/03 04:10:36;;;;;;;3.97;3.58;;;10.30;99.90;;;;;;6110950;23;20474;-72
2022/05/03 04:13:02;;;;;;;3.70;3.40;;;10.30;99.90;;;;;;6112344;23;20013;-72
2022/05/03 04:15:28;;;;;;;4.95;2.92;;;10.30;99.90;;;;;;6110846;23;20029;-72
2022/05/03 04:17:54;;;;;;;5.18;3.40;;;10.30;99.90;;;;;;6108409;23;20132;-72
2022/05/03 04:20:20;;;;;;;5.45;3.13;;;10.30;99.90;;;;;;6111287;23;20392;-78
2022/05/03 04:22:46;;;;;;;3.55;3.25;;;10.40;99.90;;;;;;6110937;23;20095;-78
2022/05/03 04:25:11;;;;;;;4.80;3.80;;;10.60;99.90;;;;;;6078701;23;20295;-77
2022/05/03 04:27:38;;;;;;;7.82;4.00;;;10.60;99.90;;;;;;6110498;23;20010;-78
2022/05/03 04:30:04;;;;;;;4.80;4.40;;;10.70;99.90;;;;;;6110444;23;20475;-77
2022/05/03 04:32:33;;;;;;;10.40;5.55;;;10.70;99.90;;;;;;6110823;23;20020;-76
2022/05/03 04:34:59;;;;;;;8.73;6.53;;;10.60;99.90;;;;;;6110029;23;20409;-77
2022/05/03 04:37:26;;;;;;;7.95;5.50;;;10.60;99.90;;;;;;6110811;23;20036;-70
2022/05/03 04:39:52;;;;;;;7.18;6.35;;;10.60;99.90;;;;;;6109995;23;20021;-71
2022/05/03 04:42:17;;;;;;;8.05;6.97;;;10.80;99.90;;;;;;6110643;23;20006;-71
2022/05/03 04:44:43;;;;;;;10.90;7.60;;;10.80;99.90;;;;;;6085988;23;20134;-71
2022/05/03 04:47:08;;;;;;;8.10;6.20;;;11.00;99.90;;;;;;6109679;23;20059;-71
2022/05/03 04:49:35;;;;;;;20.55;14.50;;;11.10;99.90;;;;;;6110416;23;20017;-71
2022/05/03 04:52:01;;;;;;;19.45;13.25;;;11.30;99.90;;;;;;6109102;23;20034;-71
2022/05/03 04:54:26;;;;;;;14.35;10.32;;;11.40;99.90;;;;;;6085085;23;20171;-71
2022/05/03 04:57:01;;;;;;;13.38;9.55;;;11.60;99.90;;;;;;6108066;23;20006;-70
2022/05/03 04:59:27;;;;;;;16.75;11.63;;;11.70;99.90;;;;;;6103050;23;20981;-70
2022/05/03 05:01:53;;;;;;;25.25;15.70;;;11.80;99.90;;;;;;6108896;23;20064;-69
2022/05/03 05:04:18;;;;;;;21.17;16.17;;;12.00;99.90;;;;;;6110015;23;20006;-70
2022/05/03 05:06:44;;;;;;;23.00;15.50;;;12.10;99.90;;;;;;6109628;23;20745;-68
2022/05/03 05:09:10;;;;;;;29.58;18.13;;;12.20;99.90;;;;;;6082317;23;20538;-70
2022/05/03 05:11:35;;;;;;;30.63;17.75;;;12.30;99.90;;;;;;6105771;23;20014;-70
2022/05/03 05:14:01;;;;;;;22.85;15.70;;;12.40;99.90;;;;;;6109940;23;20017;-69
2022/05/03 05:16:27;;;;;;;38.33;13.40;;;12.50;99.90;;;;;;6109293;23;20006;-70
2022/05/03 05:18:52;;;;;;;17.55;13.20;;;12.70;99.90;;;;;;6110216;23;20010;-70
2022/05/03 05:21:18;;;;;;;17.00;12.77;;;12.80;99.90;;;;;;6084591;23;20017;-71
2022/05/03 05:23:44;;;;;;;17.55;11.88;;;13.00;99.90;;;;;;6111903;23;20021;-70
2022/05/03 05:26:09;;;;;;;12.13;9.25;;;13.00;99.90;;;;;;6109072;23;20006;-70
2022/05/03 05:28:35;;;;;;;10.55;8.27;;;13.10;99.90;;;;;;6111005;23;20010;-71
2022/05/03 05:31:00;;;;;;;7.75;6.95;;;13.30;99.90;;;;;;6110588;23;20020;-70
2022/05/03 05:33:26;;;;;;;11.93;7.55;;;13.30;99.90;;;;;;6111375;23;20028;-71
2022/05/03 05:35:52;;;;;;;7.88;6.90;;;13.40;99.90;;;;;;6110833;23;20343;-72
2022/05/03 05:38:19;;;;;;;8.80;6.40;;;13.50;99.90;;;;;;6113672;23;20011;-72
2022/05/03 05:40:49;;;;;;;7.38;6.43;;;13.60;99.90;;;;;;6113081;23;20006;-72
2022/05/03 05:43:15;;;;;;;7.43;6.50;;;13.70;99.90;;;;;;6113399;23;20614;-72
2022/05/03 05:45:41;;;;;;;7.30;6.03;;;13.80;99.30;;;;;;6113998;23;20571;-73
2022/05/03 05:48:10;;;;;;;8.95;6.68;;;13.90;99.20;;;;;;6113627;23;20077;-72
2022/05/03 05:50:37;;;;;;;12.15;5.72;;;14.00;98.80;;;;;;6113952;23;20070;-72
2022/05/03 05:55:47;;;;;;;7.97;6.35;;;14.10;98.30;;;;;;6112304;23;20063;-72
2022/05/03 05:58:12;;;;;;;9.57;6.32;;;14.30;98.10;;;;;;6114090;23;20013;-72
2022/05/03 06:00:38;;;;;;;8.20;6.20;;;14.30;98.10;;;;;;6113966;23;20045;-72
2022/05/03 06:03:05;;;;;;;7.30;6.60;;;14.30;97.80;;;;;;6062020;23;20021;-72
2022/05/03 06:05:31;;;;;;;7.88;6.53;;;14.40;97.60;;;;;;6114015;23;20439;-72
2022/05/03 06:07:57;;;;;;;5.90;5.13;;;14.40;97.40;;;;;;6113179;23;20308;-72
2022/05/03 06:10:26;;;;;;;8.65;5.78;;;14.60;96.70;;;;;;6114081;23;20088;-72
2022/05/03 06:12:53;;;;;;;8.57;5.45;;;14.80;96.10;;;;;;6111663;23;20017;-72
2022/05/03 06:15:21;;;;;;;6.13;5.53;;;15.00;96.40;;;;;;6114168;23;20006;-71
2022/05/03 06:17:47;;;;;;;5.93;4.82;;;15.10;96.10;;;;;;6111731;23;20004;-72
2022/05/03 06:20:12;;;;;;;6.60;4.97;;;15.30;96.00;;;;;;6114098;23;20037;-72
2022/05/03 06:22:42;;;;;;;10.13;6.10;;;15.50;95.70;;;;;;6113875;23;19999;-72
2022/05/03 06:25:09;;;;;;;7.30;6.60;;;15.70;95.80;;;;;;6113028;23;20002;-72
2022/05/03 06:27:36;;;;;;;8.25;6.60;;;15.80;96.70;;;;;;6113607;23;20002;-72
2022/05/03 06:30:03;;;;;;;10.77;5.97;;;15.90;96.60;;;;;;6114200;23;20013;-72
2022/05/03 06:32:29;;;;;;;9.52;6.45;;;16.00;96.50;;;;;;6111828;23;20006;-78
2022/05/03 06:34:54;;;;;;;11.27;6.35;;;16.10;96.40;;;;;;6113774;23;20487;-78
2022/05/03 06:37:20;;;;;;;6.70;5.80;;;16.20;95.90;;;;;;6113820;23;20016;-78
2022/05/03 06:39:45;;;;;;;5.70;4.93;;;16.20;95.60;;;;;;6114457;23;20120;-78
2022/05/03 06:42:11;;;;;;;5.47;4.93;;;16.40;95.00;;;;;;6112587;23;20458;-78
2022/05/03 06:44:37;;;;;;;5.30;4.45;;;16.50;94.50;;;;;;6112410;23;20002;-77
2022/05/03 06:47:04;;;;;;;5.82;5.20;;;16.60;94.40;;;;;;6112308;23;20461;-78
2022/05/03 06:49:29;;;;;;;5.65;4.47;;;16.70;95.10;;;;;;6110664;23;20081;-78
2022/05/03 06:51:55;;;;;;;5.78;3.70;;;16.80;95.60;;;;;;6112036;23;20044;-72
2022/05/03 06:54:21;;;;;;;4.18;3.78;;;16.90;94.60;;;;;;6111742;23;20021;-72
2022/05/03 06:56:46;;;;;;;5.15;3.50;;;17.10;94.10;;;;;;6085531;23;20033;-71
2022/05/03 06:59:12;;;;;;;4.22;2.58;;;17.10;93.30;;;;;;6111633;23;20067;-72
2022/05/03 07:01:37;;;;;;;3.38;2.75;;;17.30;91.70;;;;;;6086241;23;20306;-72
2022/05/03 07:04:03;;;;;;;2.80;2.53;;;17.40;90.30;;;;;;6110649;23;20518;-72
2022/05/03 07:06:29;;;;;;;5.18;2.88;;;17.50;89.80;;;;;;6110889;23;20500;-72
2022/05/03 07:08:54;;;;;;;3.85;3.03;;;17.60;89.90;;;;;;6084683;23;20018;-72
2022/05/03 07:11:20;;;;;;;4.20;3.03;;;17.70;90.20;;;;;;6111979;23;20334;-72
2022/05/03 07:13:47;;;;;;;3.70;2.42;;;17.90;90.60;;;;;;6085144;23;20077;-72
2022/05/03 07:16:13;;;;;;;3.28;2.95;;;18.10;90.10;;;;;;6112201;23;20034;-72
2022/05/03 07:24:07;;;;;;;3.83;2.65;;;18.50;89.30;;;;;;6110431;23;20122;-72
2022/05/03 07:26:33;;;;;;;2.75;2.45;;;18.60;88.10;;;;;;6108779;23;20049;-71
2022/05/03 07:28:59;;;;;;;6.30;2.42;;;18.70;86.80;;;;;;6110187;23;20013;-72
2022/05/03 07:31:24;;;;;;;4.88;2.72;;;18.70;88.70;;;;;;6112434;23;20017;-78
2022/05/03 07:33:50;;;;;;;2.50;2.30;;;18.80;87.80;;;;;;6110568;23;20358;-77
2022/05/03 07:36:19;;;;;;;3.70;2.90;;;19.00;85.60;;;;;;6111652;23;20014;-78
2022/05/03 07:38:46;;;;;;;2.95;2.10;;;19.10;85.90;;;;;;6109136;23;20032;-78
2022/05/03 07:41:12;;;;;;;3.20;2.65;;;19.20;83.00;;;;;;6109771;23;20367;-78
2022/05/03 07:43:38;;;;;;;3.95;2.65;;;19.10;84.20;;;;;;6112353;23;20010;-78
2022/05/03 07:46:04;;;;;;;2.83;2.28;;;19.10;86.00;;;;;;6111087;23;20030;-79
2022/05/03 07:48:29;;;;;;;2.50;2.30;;;19.20;85.30;;;;;;6112528;23;20458;-72
2022/05/03 07:50:55;;;;;;;2.53;2.22;;;19.40;84.00;;;;;;6112138;23;20056;-72
2022/05/03 07:53:21;;;;;;;3.08;2.63;;;19.50;84.50;;;;;;6110269;23;20042;-72
2022/05/03 07:55:48;;;;;;;2.58;2.35;;;19.60;82.40;;;;;;6112274;23;20010;-72
2022/05/03 07:58:14;;;;;;;3.30;2.47;;;19.60;81.90;;;;;;6112771;23;20113;-71
2022/05/03 08:00:40;;;;;;;3.63;2.70;;;19.70;80.20;;;;;;6112564;23;20006;-72
2022/05/03 08:03:06;;;;;;;2.92;2.10;;;19.80;80.00;;;;;;6110365;23;20394;-72
2022/05/03 08:05:32;;;;;;;2.47;2.28;;;19.90;79.80;;;;;;6112517;23;20077;-71
2022/05/03 08:07:58;;;;;;;3.22;2.20;;;19.90;76.70;;;;;;6110858;23;20134;-72
2022/05/03 08:10:23;;;;;;;3.65;2.28;;;19.90;78.80;;;;;;6112541;23;20308;-72
2022/05/03 08:12:52;;;;;;;2.40;2.17;;;20.00;76.90;;;;;;6111378;23;20010;-72
2022/05/03 08:15:19;;;;;;;3.40;2.10;;;20.00;76.60;;;;;;6112376;23;20013;-72
2022/05/03 08:17:45;;;;;;;2.47;2.28;;;20.20;74.30;;;;;;6111778;23;20002;-72
2022/05/03 08:20:13;;;;;;;2.58;2.25;;;20.20;73.00;;;;;;6113199;23;20010;-72
2022/05/03 08:22:41;;;;;;;2.50;2.10;;;20.20;73.70;;;;;;6112445;23;20033;-72
2022/05/03 08:25:08;;;;;;;2.33;2.13;;;20.30;75.80;;;;;;6112758;23;20033;-72
2022/05/03 08:27:38;;;;;;;2.67;2.45;;;20.30;71.80;;;;;;6112407;23;20002;-78
2022/05/03 08:30:05;;;;;;;7.20;1.90;;;20.40;73.80;;;;;;6113652;23;20002;-78
2022/05/03 08:32:31;;;;;;;2.38;2.15;;;20.50;70.60;;;;;;6110969;23;19998;-78
2022/05/03 08:34:56;;;;;;;3.72;2.30;;;20.50;70.40;;;;;;6112278;23;20030;-78
2022/05/03 08:42:51;;;;;;;2.22;2.03;;;20.70;67.90;;;;;;6111540;23;20140;-79
2022/05/03 08:45:19;;;;;;;5.40;2.10;;;20.90;67.60;;;;;;6111087;23;20029;-79
2022/05/03 08:47:46;;;;;;;3.30;1.77;;;21.00;67.50;;;;;;6112855;23;20006;-72
2022/05/03 08:50:12;;;;;;;2.20;1.98;;;21.10;66.20;;;;;;6112281;23;20037;-72
2022/05/03 08:52:54;;;;;;;2.10;1.90;;;21.20;66.20;;;;;;6112143;23;20009;-72
2022/05/03 08:55:21;;;;;;;2.67;2.10;;;21.30;68.50;;;;;;6110477;23;20017;-72
2022/05/03 08:57:47;;;;;;;4.05;1.80;;;21.30;65.50;;;;;;6110461;23;20081;-72
2022/05/03 09:00:14;;;;;;;2.15;1.98;;;21.40;64.20;;;;;;6111815;23;20038;-72
2022/05/03 09:02:54;;;;;;;2.42;1.92;;;21.30;64.00;;;;;;6109565;23;20622;-72
2022/05/03 09:05:21;;;;;;;5.13;2.20;;;21.40;65.90;;;;;;6111666;23;20006;-72
2022/05/03 09:07:56;;;;;;;1.90;1.80;;;21.50;65.80;;;;;;6110498;23;20080;-72
2022/05/03 09:10:31;;;;;;;2.72;2.13;;;21.50;64.30;;;;;;6109833;23;20081;-72
2022/05/03 09:13:17;;;;;;;2.45;1.67;;;21.60;63.40;;;;;;6109213;23;20069;-72
2022/05/03 09:15:43;;;;;;;2.72;1.65;;;21.80;62.60;;;;;;6111033;23;20457;-71
2022/05/03 09:18:31;;;;;;;2.25;1.80;;;21.90;62.30;;;;;;6110673;23;20010;-72
2022/05/03 09:23:47;;;;;;;10.95;1.80;;;22.00;58.40;;;;;;6111854;23;20239;-72
2022/05/03 09:26:12;;;;;;;2.80;2.00;;;22.00;58.60;;;;;;6110338;23;20018;-72
2022/05/03 09:28:58;;;;;;;4.18;1.63;;;21.90;57.30;;;;;;6111387;23;20002;-72
2022/05/03 09:31:39;;;;;;;3.53;1.65;;;21.70;57.80;;;;;;6110150;23;20006;-72
2022/05/03 09:34:19;;;;;;;3.60;1.73;;;21.40;61.70;;;;;;6113146;23;20050;-72
2022/05/03 09:37:05;;;;;;;3.00;1.80;;;21.00;62.70;;;;;;6082204;23;20356;-72
2022/05/03 09:39:41;;;;;;;3.15;1.83;;;20.70;66.60;;;;;;6081537;23;20034;-72
2022/05/03 09:42:15;;;;;;;2.65;1.85;;;20.50;68.50;;;;;;6081307;23;20011;-71
2022/05/03 09:44:52;;;;;;;3.20;2.00;;;20.30;67.30;;;;;;6082110;23;20022;-71
2022/05/03 09:47:20;;;;;;;2.92;1.90;;;20.20;66.10;;;;;;6082508;23;20014;-70
2022/05/03 09:49:46;;;;;;;2.85;2.38;;;20.10;69.40;;;;;;6077280;23;20056;-69
2022/05/03 09:52:30;;;;;;;3.45;1.95;;;19.80;72.30;;;;;;6076088;23;20427;-68
2022/05/03 09:55:03;;;;;;;2.58;2.28;;;19.60;74.90;;;;;;6080013;23;20102;-69
2022/05/03 09:57:33;;;;;;;1.80;1.70;;;19.60;74.60;;;;;;6079313;23;20030;-69
2022/05/03 10:00:00;;;;;;;2.42;1.88;;;19.50;75.10;;;;;;6082421;23;20037;-69
2022/05/03 10:02:29;;;;;;;2.40;2.13;;;19.50;75.60;;;;;;6080569;23;20076;-78
